createdAt,value
2018-06-16T00:01:25.459Z,3.33
2018-06-16T00:03:53.809Z,4.40
2018-06-16T00:06:22.061Z,6.43
2018-06-16T00:08:50.358Z,6.90
2018-06-16T00:11:18.605Z,10.10
2018-06-16T00:13:46.943Z,6.30
2018-06-16T00:16:15.188Z,7.83
2018-06-16T00:18:43.467Z,6.80
2018-06-16T00:21:11.697Z,5.00
2018-06-16T00:23:40.429Z,6.87
2018-06-16T00:26:08.662Z,9.33
2018-06-16T00:28:36.908Z,7.17
2018-06-16T00:31:05.184Z,4.70
2018-06-16T00:33:33.461Z,3.90
2018-06-16T00:36:01.749Z,8.83
2018-06-16T00:38:29.993Z,5.17
2018-06-16T00:40:58.260Z,7.30
2018-06-16T00:43:26.701Z,7.80
2018-06-16T00:45:54.968Z,10.13
2018-06-16T00:48:23.222Z,10.83
2018-06-16T00:50:51.499Z,4.33
2018-06-16T00:53:19.729Z,6.10
2018-06-16T00:55:48.018Z,7.00
2018-06-16T00:58:16.264Z,8.10
2018-06-16T01:00:44.539Z,5.43
2018-06-16T01:03:13.429Z,9.30
2018-06-16T01:05:41.689Z,5.17
2018-06-16T01:08:09.940Z,5.17
2018-06-16T01:10:38.217Z,5.27
2018-06-16T01:13:06.469Z,8.23
2018-06-16T01:15:34.709Z,5.13
2018-06-16T01:18:02.969Z,8.20
2018-06-16T01:20:31.245Z,5.97
2018-06-16T01:22:59.510Z,6.27
2018-06-16T01:25:27.773Z,3.67
2018-06-16T01:27:56.065Z,6.83
2018-06-16T01:30:24.305Z,6.20
2018-06-16T01:32:52.593Z,8.00
2018-06-16T01:35:20.836Z,4.77
2018-06-16T01:37:49.093Z,10.10
2018-06-16T01:40:17.339Z,3.60
2018-06-16T01:42:45.607Z,7.13
2018-06-16T01:45:13.841Z,6.30
2018-06-16T01:47:42.112Z,8.50
2018-06-16T01:50:10.361Z,10.20
2018-06-16T01:52:38.633Z,8.00
2018-06-16T01:55:06.869Z,5.10
2018-06-16T01:57:35.122Z,10.17
2018-06-16T02:00:03.392Z,10.40
2018-06-16T02:02:31.633Z,6.67
2018-06-16T02:04:59.905Z,6.37
2018-06-16T02:07:28.146Z,5.90
2018-06-16T02:09:56.413Z,9.60
2018-06-16T02:12:24.741Z,10.70
2018-06-16T02:14:53.030Z,9.40
2018-06-16T02:17:21.282Z,5.70
2018-06-16T02:19:49.544Z,3.70
2018-06-16T02:22:17.777Z,5.17
2018-06-16T02:24:46.038Z,6.63
2018-06-16T02:27:14.277Z,8.30
2018-06-16T02:29:42.605Z,9.40
2018-06-16T02:32:10.852Z,6.70
2018-06-16T02:34:39.150Z,5.70
2018-06-16T02:37:07.414Z,4.50
2018-06-16T02:39:35.703Z,6.20
2018-06-16T02:42:03.937Z,11.17
2018-06-16T02:44:32.215Z,4.70
2018-06-16T02:47:00.457Z,4.13
2018-06-16T02:49:28.697Z,8.47
2018-06-16T02:51:56.963Z,8.23
2018-06-16T02:54:25.207Z,9.70
2018-06-16T02:56:53.480Z,10.17
2018-06-16T02:59:21.732Z,5.93
2018-06-16T03:01:50.017Z,7.70
2018-06-16T03:04:18.273Z,9.87
2018-06-16T03:06:46.548Z,7.10
2018-06-16T03:09:14.801Z,13.03
2018-06-16T03:11:43.082Z,11.43
2018-06-16T03:14:11.372Z,11.13
2018-06-16T03:16:39.676Z,9.63
2018-06-16T03:19:07.925Z,9.17
2018-06-16T03:21:36.205Z,7.83
2018-06-16T03:24:04.464Z,9.17
2018-06-16T03:26:32.733Z,7.83
2018-06-16T03:29:00.982Z,10.40
2018-06-16T03:31:29.265Z,10.40
2018-06-16T03:33:57.541Z,7.83
2018-06-16T03:36:25.895Z,9.50
2018-06-16T03:38:54.141Z,15.10
2018-06-16T03:41:22.421Z,11.93
2018-06-16T03:43:50.785Z,5.70
2018-06-16T03:46:19.041Z,9.68
2018-06-16T03:48:47.366Z,8.97
2018-06-16T03:51:15.597Z,9.67
2018-06-16T03:53:43.887Z,8.27
2018-06-16T03:56:12.137Z,8.17
2018-06-16T03:58:40.433Z,6.00
2018-06-16T04:01:08.696Z,10.80
2018-06-16T04:03:36.968Z,4.70
2018-06-16T04:06:05.357Z,7.90
2018-06-16T04:08:33.646Z,8.20
2018-06-16T04:11:02.006Z,4.97
2018-06-16T04:13:30.301Z,5.23
2018-06-16T04:15:58.559Z,10.97
2018-06-16T04:18:26.829Z,7.53
2018-06-16T04:20:55.077Z,5.87
2018-06-16T04:23:23.363Z,7.83
2018-06-16T04:25:51.716Z,5.10
2018-06-16T04:28:19.960Z,4.73
2018-06-16T04:30:48.220Z,4.33
2018-06-16T04:33:16.538Z,3.47
2018-06-16T04:35:44.782Z,4.43
2018-06-16T04:38:13.041Z,7.87
2018-06-16T04:40:41.317Z,5.57
2018-06-16T04:43:09.560Z,5.87
2018-06-16T04:45:37.919Z,3.03
2018-06-16T04:48:06.257Z,4.37
2018-06-16T04:50:34.653Z,7.50
2018-06-16T04:53:02.906Z,4.70
2018-06-16T04:55:31.210Z,9.83
2018-06-16T04:57:59.485Z,7.13
2018-06-16T05:00:27.766Z,6.10
2018-06-16T05:02:56.024Z,5.73
2018-06-16T05:05:24.322Z,6.23
2018-06-16T05:07:52.581Z,8.03
2018-06-16T05:10:20.848Z,4.00
2018-06-16T05:12:49.120Z,8.77
2018-06-16T05:15:17.421Z,8.87
2018-06-16T05:17:45.720Z,4.30
2018-06-16T05:20:13.982Z,6.43
2018-06-16T05:22:42.349Z,8.70
2018-06-16T05:25:10.725Z,6.50
2018-06-16T05:27:39.140Z,8.30
2018-06-16T05:30:07.405Z,6.23
2018-06-16T05:32:35.890Z,6.20
2018-06-16T05:35:04.169Z,4.53
2018-06-16T05:37:32.469Z,5.23
2018-06-16T05:40:00.728Z,6.60
2018-06-16T05:42:29.183Z,9.33
2018-06-16T05:44:58.433Z,6.70
2018-06-16T05:47:26.761Z,13.67
2018-06-16T05:49:55.049Z,5.03
2018-06-16T05:52:23.333Z,8.33
2018-06-16T05:54:51.593Z,8.63
2018-06-16T05:57:19.893Z,9.77
2018-06-16T05:59:48.149Z,7.97
2018-06-16T06:02:16.471Z,10.07
2018-06-16T06:04:44.788Z,14.13
2018-06-16T06:07:13.280Z,8.90
2018-06-16T06:09:41.577Z,6.20
2018-06-16T06:12:09.901Z,6.97
2018-06-16T06:14:38.189Z,6.77
2018-06-16T06:17:06.440Z,6.33
2018-06-16T06:19:34.741Z,6.80
2018-06-16T06:22:03.057Z,5.60
2018-06-16T06:24:31.648Z,10.17
2018-06-16T06:26:59.973Z,15.37
2018-06-16T06:29:28.245Z,13.73
2018-06-16T06:31:56.519Z,5.30
2018-06-16T06:34:24.824Z,8.60
2018-06-16T06:36:53.077Z,18.53
2018-06-16T06:39:21.357Z,11.80
2018-06-16T06:41:49.604Z,12.67
2018-06-16T06:44:17.897Z,7.10
2018-06-16T06:46:46.157Z,10.10
2018-06-16T06:49:14.485Z,13.37
2018-06-16T06:51:42.878Z,7.33
2018-06-16T06:54:11.109Z,8.90
2018-06-16T06:56:39.401Z,12.67
2018-06-16T06:59:07.653Z,13.50
2018-06-16T07:01:35.953Z,15.13
2018-06-16T07:04:04.307Z,9.80
2018-06-16T07:06:32.596Z,10.33
2018-06-16T07:09:00.868Z,10.97
2018-06-16T07:11:29.152Z,8.30
2018-06-16T07:13:57.433Z,10.13
2018-06-16T07:16:25.796Z,8.67
2018-06-16T07:18:54.045Z,11.50
2018-06-16T07:21:22.337Z,7.70
2018-06-16T07:23:50.598Z,10.00
2018-06-16T07:26:18.880Z,7.53
2018-06-16T07:28:47.140Z,11.33
2018-06-16T07:31:15.435Z,10.10
2018-06-16T07:33:43.850Z,10.83
2018-06-16T07:36:12.178Z,10.23
2018-06-16T07:38:40.474Z,9.03
2018-06-16T07:41:08.778Z,12.60
2018-06-16T07:43:37.385Z,14.23
2018-06-16T07:46:05.957Z,10.03
2018-06-16T07:48:34.341Z,9.63
2018-06-16T07:51:02.641Z,9.30
2018-06-16T07:53:30.923Z,12.83
2018-06-16T07:55:59.173Z,8.20
2018-06-16T07:58:27.457Z,12.33
2018-06-16T08:00:55.709Z,13.80
2018-06-16T08:03:23.989Z,15.17
2018-06-16T08:05:52.242Z,10.43
2018-06-16T08:08:20.537Z,8.97
2018-06-16T08:10:48.794Z,9.77
2018-06-16T08:13:17.065Z,10.20
2018-06-16T08:15:45.326Z,14.60
2018-06-16T08:18:13.630Z,14.67
2018-06-16T08:20:41.881Z,11.57
2018-06-16T08:23:10.201Z,10.53
2018-06-16T08:25:38.459Z,8.83
2018-06-16T08:28:06.700Z,9.47
2018-06-16T08:30:35.017Z,15.43
2018-06-16T08:33:03.334Z,9.90
2018-06-16T08:35:31.613Z,15.20
2018-06-16T08:37:59.921Z,8.30
2018-06-16T08:40:28.209Z,10.10
2018-06-16T08:42:56.473Z,10.93
2018-06-16T08:45:24.772Z,13.10
2018-06-16T08:47:53.020Z,13.53
2018-06-16T08:50:21.313Z,10.73
2018-06-16T08:52:49.686Z,9.23
2018-06-16T08:55:18.236Z,15.13
2018-06-16T08:57:46.556Z,12.30
2018-06-16T09:00:14.845Z,9.37
2018-06-16T09:02:43.098Z,7.77
2018-06-16T09:05:11.417Z,12.20
2018-06-16T09:07:39.677Z,11.73
2018-06-16T09:10:07.977Z,11.37
2018-06-16T09:12:36.293Z,8.00
2018-06-16T09:15:04.669Z,8.13
2018-06-16T09:17:32.983Z,9.27
2018-06-16T09:20:01.251Z,13.53
2018-06-16T09:22:29.559Z,10.30
2018-06-16T09:24:58.034Z,16.60
2018-06-16T09:27:26.358Z,11.00
2018-06-16T09:29:54.633Z,7.97
2018-06-16T09:32:22.915Z,8.13
2018-06-16T09:34:51.194Z,10.27
2018-06-16T09:37:19.474Z,11.03
2018-06-16T09:39:47.738Z,8.80
2018-06-16T09:42:16.021Z,10.13
2018-06-16T09:44:44.290Z,8.23
2018-06-16T09:47:12.578Z,8.43
2018-06-16T09:49:40.845Z,8.77
2018-06-16T09:52:09.133Z,9.30
2018-06-16T09:54:37.400Z,7.50
2018-06-16T09:57:05.704Z,8.17
2018-06-16T09:59:33.957Z,10.50
2018-06-16T10:02:02.218Z,11.30
2018-06-16T10:04:30.538Z,9.63
2018-06-16T10:06:58.889Z,8.33
2018-06-16T10:10:30.136Z,19.70
2018-06-16T10:12:58.429Z,8.30
2018-06-16T10:15:26.697Z,15.70
2018-06-16T10:17:54.957Z,13.77
2018-06-16T10:20:23.336Z,11.93
2018-06-16T10:22:51.689Z,6.63
2018-06-16T10:25:20.007Z,10.27
2018-06-16T10:27:48.382Z,12.80
2018-06-16T10:30:16.665Z,12.23
2018-06-16T10:32:45.030Z,6.80
2018-06-16T10:35:13.329Z,7.60
2018-06-16T10:37:41.598Z,12.60
2018-06-16T10:40:09.941Z,11.47
2018-06-16T10:42:38.396Z,11.67
2018-06-16T10:45:06.729Z,11.80
2018-06-16T10:47:35.115Z,10.87
2018-06-16T10:50:03.482Z,9.83
2018-06-16T10:52:31.745Z,11.77
2018-06-16T10:55:00.070Z,10.03
2018-06-16T10:57:28.364Z,7.40
2018-06-16T10:59:56.933Z,11.33
2018-06-16T11:02:25.206Z,14.03
2018-06-16T11:04:53.539Z,11.03
2018-06-16T11:07:21.841Z,10.23
2018-06-16T11:09:50.098Z,13.10
2018-06-16T11:12:18.514Z,11.95
2018-06-16T11:14:46.797Z,16.00
2018-06-16T11:17:15.230Z,9.50
2018-06-16T11:19:43.537Z,13.60
2018-06-16T11:22:11.834Z,13.20
2018-06-16T11:24:40.122Z,8.67
2018-06-16T11:27:08.421Z,10.63
2018-06-16T11:29:36.699Z,9.20
2018-06-16T11:32:05.241Z,9.20
2018-06-16T11:34:33.542Z,10.73
2018-06-16T11:37:01.823Z,10.13
2018-06-16T11:39:30.116Z,11.40
2018-06-16T11:41:58.393Z,8.03
2018-06-16T11:44:26.853Z,9.50
2018-06-16T11:46:55.141Z,9.47
2018-06-16T11:49:23.716Z,11.33
2018-06-16T11:51:52.022Z,9.83
2018-06-16T11:54:20.341Z,11.63
2018-06-16T11:56:48.617Z,9.50
2018-06-16T11:59:17.126Z,10.97
2018-06-16T12:01:45.477Z,11.67
2018-06-16T12:04:13.777Z,9.67
2018-06-16T12:06:42.061Z,11.97
2018-06-16T12:09:12.177Z,11.60
2018-06-16T12:11:40.481Z,11.33
2018-06-16T12:14:09.537Z,10.10
2018-06-16T12:16:38.101Z,9.50
2018-06-16T12:19:06.705Z,8.30
2018-06-16T12:21:35.030Z,8.37
2018-06-16T12:24:03.359Z,10.33
2018-06-16T12:26:31.706Z,9.10
2018-06-16T12:29:00.105Z,9.63
2018-06-16T12:31:28.370Z,8.10
2018-06-16T12:33:56.786Z,11.40
2018-06-16T12:36:25.074Z,8.57
2018-06-16T12:38:53.340Z,10.43
2018-06-16T12:41:21.797Z,9.57
2018-06-16T12:43:50.357Z,8.93
2018-06-16T12:46:18.669Z,9.60
2018-06-16T12:48:46.993Z,7.93
2018-06-16T12:51:15.310Z,7.80
2018-06-16T12:53:43.574Z,7.90
2018-06-16T12:56:11.979Z,7.07
2018-06-16T12:58:40.278Z,8.43
2018-06-16T13:01:08.594Z,8.80
2018-06-16T13:03:36.864Z,10.80
2018-06-16T13:06:05.153Z,8.13
2018-06-16T13:08:33.428Z,7.70
2018-06-16T13:11:01.681Z,7.60
2018-06-16T13:13:30.200Z,8.17
2018-06-16T13:15:58.469Z,7.33
2018-06-16T13:18:26.821Z,10.37
2018-06-16T13:20:55.071Z,8.90
2018-06-16T13:23:23.356Z,9.53
2018-06-16T13:25:51.612Z,8.87
2018-06-16T13:28:19.925Z,8.60
2018-06-16T13:30:48.186Z,11.47
2018-06-16T13:33:16.469Z,10.57
2018-06-16T13:35:44.785Z,9.70
2018-06-16T13:38:13.081Z,9.80
2018-06-16T13:40:41.333Z,7.13
2018-06-16T13:43:09.605Z,5.30
2018-06-16T13:45:37.866Z,4.63
2018-06-16T13:48:06.206Z,4.13
2018-06-16T13:50:34.609Z,4.23
2018-06-16T13:53:02.861Z,4.60
2018-06-16T13:55:31.191Z,7.83
2018-06-16T13:57:59.485Z,5.00
2018-06-16T14:00:27.756Z,5.30
2018-06-16T14:02:56.007Z,4.13
2018-06-16T14:05:24.301Z,4.53
2018-06-16T14:07:52.595Z,6.07
2018-06-16T14:10:20.968Z,5.87
2018-06-16T14:12:49.409Z,5.37
2018-06-16T14:15:17.686Z,7.60
2018-06-16T14:17:45.950Z,7.53
2018-06-16T14:20:14.233Z,7.93
2018-06-16T14:22:42.579Z,8.33
2018-06-16T14:25:10.862Z,10.80
2018-06-16T14:27:39.115Z,8.70
2018-06-16T14:30:07.541Z,8.30
2018-06-16T14:32:35.898Z,8.10
2018-06-16T14:35:04.281Z,9.43
2018-06-16T14:37:32.732Z,8.10
2018-06-16T14:40:01.009Z,7.00
2018-06-16T14:42:29.298Z,6.97
2018-06-16T14:44:57.568Z,9.43
2018-06-16T14:47:25.891Z,13.00
2018-06-16T14:49:54.221Z,9.60
2018-06-16T14:52:22.521Z,10.80
2018-06-16T14:54:50.765Z,12.50
2018-06-16T14:57:19.053Z,12.13
2018-06-16T14:59:47.309Z,12.93
2018-06-16T15:02:15.774Z,9.00
2018-06-16T15:04:44.096Z,9.37
2018-06-16T15:07:12.305Z,9.33
2018-06-16T15:09:40.557Z,9.50
2018-06-16T15:12:08.838Z,7.93
2018-06-16T15:14:37.101Z,8.13
2018-06-16T15:17:05.384Z,11.13
2018-06-16T15:19:33.790Z,12.13
2018-06-16T15:22:02.342Z,9.27
2018-06-16T15:24:30.600Z,12.83
2018-06-16T15:26:58.856Z,10.90
2018-06-16T15:29:27.173Z,9.57
2018-06-16T15:31:55.430Z,9.30
2018-06-16T15:34:23.741Z,10.97
2018-06-16T15:36:52.013Z,11.77
2018-06-16T15:39:20.301Z,14.37
2018-06-16T15:41:48.561Z,11.57
2018-06-16T15:44:16.941Z,14.97
2018-06-16T15:46:45.257Z,15.13
2018-06-16T15:49:13.501Z,16.10
2018-06-16T15:51:42.611Z,13.67
2018-06-16T15:54:10.958Z,12.90
2018-06-16T15:56:39.213Z,17.13
2018-06-16T15:59:07.509Z,27.57
2018-06-16T16:01:35.770Z,18.87
2018-06-16T16:04:04.097Z,23.33
2018-06-16T16:06:32.442Z,18.33
2018-06-16T16:09:00.738Z,29.30
2018-06-16T16:11:29.020Z,23.93
2018-06-16T16:13:57.353Z,24.00
2018-06-16T16:16:25.668Z,18.90
2018-06-16T16:18:54.001Z,20.43
2018-06-16T16:21:22.305Z,20.77
2018-06-16T16:23:50.573Z,19.93
2018-06-16T16:26:18.853Z,19.43
2018-06-16T16:28:47.108Z,19.77
2018-06-16T16:31:15.388Z,19.53
2018-06-16T16:33:43.768Z,27.13
2018-06-16T16:36:12.081Z,20.40
2018-06-16T16:38:40.421Z,26.57
2018-06-16T16:41:08.708Z,22.07
2018-06-16T16:43:36.961Z,20.23
2018-06-16T16:46:05.260Z,16.40
2018-06-16T16:48:33.520Z,16.73
2018-06-16T16:51:01.804Z,17.00
2018-06-16T16:53:30.057Z,18.07
2018-06-16T16:55:58.374Z,17.80
2018-06-16T16:58:26.724Z,17.67
2018-06-16T17:00:55.033Z,25.33
2018-06-16T17:03:23.321Z,17.97
2018-06-16T17:05:51.652Z,18.90
2018-06-16T17:08:19.934Z,21.40
2018-06-16T17:10:48.189Z,32.20
2018-06-16T17:13:16.460Z,17.47
2018-06-16T17:15:44.723Z,23.50
2018-06-16T17:18:13.010Z,18.03
2018-06-16T17:20:41.315Z,16.83
2018-06-16T17:23:09.590Z,14.93
2018-06-16T17:25:37.869Z,17.87
2018-06-16T17:28:06.177Z,17.10
2018-06-16T17:30:34.433Z,17.57
2018-06-16T17:33:02.709Z,14.97
2018-06-16T17:35:30.993Z,13.90
2018-06-16T17:37:59.301Z,13.90
2018-06-16T17:40:27.589Z,16.73
2018-06-16T17:42:55.877Z,12.83
2018-06-16T17:45:24.129Z,29.30
2018-06-16T17:47:52.400Z,19.53
2018-06-16T17:50:20.709Z,18.43
2018-06-16T17:52:49.003Z,16.23
2018-06-16T17:55:17.289Z,17.80
2018-06-16T17:57:45.801Z,20.17
2018-06-16T18:00:14.168Z,27.90
2018-06-16T18:02:42.441Z,21.00
2018-06-16T18:05:10.725Z,26.23
2018-06-16T18:07:38.994Z,29.73
2018-06-16T18:10:07.417Z,27.73
2018-06-16T18:12:35.669Z,31.43
2018-06-16T18:15:04.006Z,33.37
2018-06-16T18:17:32.257Z,27.27
2018-06-16T18:20:00.586Z,28.87
2018-06-16T18:22:28.835Z,30.93
2018-06-16T18:24:57.137Z,29.20
2018-06-16T18:27:25.389Z,38.97
2018-06-16T18:29:53.682Z,39.70
2018-06-16T18:32:21.929Z,36.50
2018-06-16T18:34:50.244Z,32.53
2018-06-16T18:37:18.513Z,34.13
2018-06-16T18:39:46.905Z,31.73
2018-06-16T18:42:15.157Z,29.43
2018-06-16T18:44:43.417Z,34.67
2018-06-16T18:47:11.725Z,38.97
2018-06-16T18:49:40.083Z,31.07
2018-06-16T18:52:08.388Z,29.50
2018-06-16T18:54:36.642Z,34.47
2018-06-16T18:57:05.022Z,37.73
2018-06-16T18:59:33.297Z,41.40
2018-06-16T19:02:01.585Z,38.60
2018-06-16T19:04:29.844Z,36.67
2018-06-16T19:06:58.129Z,34.53
2018-06-16T19:09:26.381Z,31.93
2018-06-16T19:11:54.673Z,35.17
2018-06-16T19:14:22.925Z,37.07
2018-06-16T19:16:51.206Z,35.90
2018-06-16T19:19:19.453Z,37.50
2018-06-16T19:21:47.733Z,32.20
2018-06-16T19:24:15.989Z,35.20
2018-06-16T19:26:44.285Z,34.03
2018-06-16T19:29:12.712Z,34.77
2018-06-16T19:31:41.021Z,33.27
2018-06-16T19:34:09.617Z,37.80
2018-06-16T19:36:37.925Z,39.80
2018-06-16T19:39:09.333Z,35.33
2018-06-16T19:41:38.011Z,33.27
2018-06-16T19:44:06.501Z,38.40
2018-06-16T19:46:34.853Z,36.23
2018-06-16T19:49:03.257Z,37.37
2018-06-16T19:51:31.526Z,33.87
2018-06-16T19:53:59.801Z,29.30
2018-06-16T19:56:28.065Z,43.40
2018-06-16T19:58:56.773Z,36.07
2018-06-16T20:01:25.225Z,35.37
2018-06-16T20:03:53.504Z,39.73
2018-06-16T20:06:21.841Z,32.80
2018-06-16T20:08:50.134Z,39.97
2018-06-16T20:11:18.745Z,36.50
2018-06-16T20:13:47.022Z,33.50
2018-06-16T20:16:15.394Z,36.10
2018-06-16T20:18:43.645Z,36.53
2018-06-16T20:21:11.937Z,35.70
2018-06-16T20:23:40.240Z,37.83
2018-06-16T20:26:08.837Z,38.47
2018-06-16T20:28:37.275Z,44.57
2018-06-16T20:31:05.577Z,37.27
2018-06-16T20:33:33.842Z,40.90
2018-06-16T20:36:02.242Z,46.73
2018-06-16T20:38:30.501Z,45.80
2018-06-16T20:40:58.955Z,41.63
2018-06-16T20:43:27.222Z,49.90
2018-06-16T20:45:55.528Z,46.97
2018-06-16T20:48:24.001Z,51.30
2018-06-16T20:50:52.296Z,54.40
2018-06-16T20:53:20.563Z,40.00
2018-06-16T20:55:48.921Z,47.43
2018-06-16T20:58:17.411Z,49.33
2018-06-16T21:00:45.933Z,55.87
2018-06-16T21:03:14.192Z,59.77
2018-06-16T21:05:42.933Z,53.37
2018-06-16T21:08:11.197Z,46.40
2018-06-16T21:10:39.473Z,51.13
2018-06-16T21:13:08.021Z,45.73
2018-06-16T21:15:36.278Z,51.37
2018-06-16T21:18:04.617Z,57.53
2018-06-16T21:20:32.884Z,43.43
2018-06-16T21:23:01.333Z,47.33
2018-06-16T21:25:29.597Z,50.30
2018-06-16T21:27:57.897Z,49.43
2018-06-16T21:30:26.203Z,52.83
2018-06-16T21:32:54.493Z,53.07
2018-06-16T21:35:22.793Z,54.93
2018-06-16T21:37:51.193Z,44.90
2018-06-16T21:40:19.494Z,42.27
2018-06-16T21:42:47.793Z,47.20
2018-06-16T21:45:16.080Z,46.77
2018-06-16T21:47:44.374Z,48.07
2018-06-16T21:50:12.641Z,39.13
2018-06-16T21:52:40.957Z,44.50
2018-06-16T21:55:09.213Z,43.83
2018-06-16T21:57:37.564Z,48.63
2018-06-16T22:00:09.857Z,53.63
2018-06-16T22:02:38.228Z,41.97
2018-06-16T22:05:07.126Z,47.93
2018-06-16T22:07:35.410Z,49.23
2018-06-16T22:10:03.813Z,49.73
2018-06-16T22:12:32.090Z,47.33
2018-06-16T22:15:00.397Z,53.20
2018-06-16T22:17:28.663Z,46.77
2018-06-16T22:19:57.091Z,55.50
2018-06-16T22:22:25.438Z,45.20
2018-06-16T22:24:53.750Z,55.30
2018-06-16T22:27:22.041Z,48.80
2018-06-16T22:29:50.372Z,44.00
2018-06-16T22:32:18.641Z,52.23
2018-06-16T22:34:46.972Z,41.60
2018-06-16T22:37:15.277Z,51.67
2018-06-16T22:39:43.573Z,51.47
2018-06-16T22:42:11.853Z,49.77
2018-06-16T22:44:40.256Z,54.00
2018-06-16T22:47:08.569Z,45.70
2018-06-16T22:49:36.880Z,49.37
2018-06-16T22:52:05.139Z,51.97
2018-06-16T22:54:33.430Z,51.17
2018-06-16T22:57:01.808Z,57.23
2018-06-16T22:59:30.122Z,48.13
2018-06-16T23:01:58.404Z,60.00
2018-06-16T23:04:26.721Z,57.20
2018-06-16T23:06:55.014Z,47.30
2018-06-16T23:09:23.285Z,51.80
2018-06-16T23:11:51.590Z,59.83
2018-06-16T23:14:19.876Z,58.10
2018-06-16T23:16:48.187Z,59.67
2018-06-16T23:19:16.449Z,55.73
2018-06-16T23:21:44.785Z,54.40
2018-06-16T23:24:13.041Z,61.23
2018-06-16T23:26:41.331Z,60.50
2018-06-16T23:29:09.591Z,60.57
2018-06-16T23:31:37.876Z,62.23
2018-06-16T23:34:06.384Z,65.80
2018-06-16T23:36:34.735Z,56.77
2018-06-16T23:39:03.181Z,64.27
2018-06-16T23:41:31.489Z,51.27
2018-06-16T23:43:59.857Z,43.17
2018-06-16T23:46:28.125Z,51.40
2018-06-16T23:48:56.484Z,49.83
2018-06-16T23:51:24.765Z,47.47
2018-06-16T23:53:53.089Z,42.10
2018-06-16T23:56:21.384Z,41.00
2018-06-16T23:58:49.746Z,48.00
